createdAt,value
2022-10-29T00:19:58.826Z,1022.82
2022-10-29T00:49:58.809Z,1022.74
2022-10-29T01:19:58.820Z,1022.48
2022-10-29T01:49:58.818Z,1022.42
2022-10-29T02:19:58.826Z,1022.24
2022-10-29T02:49:58.832Z,1022.15
2022-10-29T03:19:58.829Z,1021.89
2022-10-29T03:49:58.833Z,1022.05
2022-10-29T04:19:58.840Z,1022.2
2022-10-29T04:49:58.848Z,1022.36
2022-10-29T05:19:58.842Z,1022.26
2022-10-29T05:49:58.863Z,1022.3
2022-10-29T06:19:58.850Z,1022.41
2022-10-29T06:49:58.865Z,1022.34
2022-10-29T07:19:58.840Z,1022.38
2022-10-29T07:49:58.851Z,1022.58
2022-10-29T08:19:58.858Z,1022.55
2022-10-29T08:49:58.863Z,1022.55
2022-10-29T09:19:58.871Z,1022.59
2022-10-29T09:50:03.580Z,1022.5
2022-10-29T10:19:58.883Z,1022.25
2022-10-29T10:49:58.897Z,1022.05
2022-10-29T11:19:58.901Z,1021.7
2022-10-29T11:49:58.898Z,1021.47
2022-10-29T12:19:59.046Z,1021.04
2022-10-29T12:49:58.902Z,1020.84
2022-10-29T13:19:58.936Z,1020.49
2022-10-29T13:49:58.925Z,1020.3
2022-10-29T14:19:58.958Z,1020.23
2022-10-29T14:49:58.930Z,1020.2
2022-10-29T15:19:58.927Z,1020.09
2022-10-29T15:49:58.944Z,1020.08
2022-10-29T16:19:58.931Z,1020.03
2022-10-29T16:49:59.050Z,1020.1
2022-10-29T17:19:58.950Z,1020.22
2022-10-29T17:49:58.950Z,1020.44
2022-10-29T18:19:58.969Z,1020.53
2022-10-29T18:49:58.962Z,1020.45
2022-10-29T19:19:58.973Z,1020.39
2022-10-29T19:49:58.987Z,1020.22
2022-10-29T20:19:59.007Z,1020.33
2022-10-29T20:49:59.002Z,1020.31
2022-10-29T21:19:59.011Z,1020.34
2022-10-29T21:49:59.008Z,1020.25
2022-10-29T22:19:59.004Z,1020.19
2022-10-29T22:49:59.019Z,1020.06
2022-10-29T23:19:59.015Z,1019.9
2022-10-29T23:49:59.028Z,1019.86
